Stations météo

réclame
Mon MeteoGroup
Otranto, Italie (16334): Température de l'air & dewpoint: 21.04.2018 08:00:00 - 27.04.2018 08:00:00 (CEST)Otranto, Italie (16334): Vitesse du vent: 21.04.2018 08:00:00 - 27.04.2018 08:00:00 (CEST)Otranto, Italie (16334): Direction du vent: 21.04.2018 08:00:00 - 27.04.2018 08:00:00 (CEST)Otranto, Italie (16334): reduced air pressure: 21.04.2018 08:00:00 - 27.04.2018 08:00:00 (CEST)Otranto, Italie (16334): Quantités de précipitations: 21.04.2018 08:00:00 - 27.04.2018 08:00:00 (CEST)
Date & Time tt [°C] td [°C] ff [km/h] ff [knt] dd ppp [hPa] rr [mm]
27.04.2018 08:00:00 - - - - - - -
27.04.2018 07:00:00 16,3 16,2 4 2 S 1011,8 -
27.04.2018 06:00:00 17,1 17,0 4 2 SSW 1011,5 -
27.04.2018 05:00:00 16,7 16,6 5 3 SSE 1011,7 -
27.04.2018 04:00:00 17,5 17,4 5 3 SE 1011,6 -
27.04.2018 03:00:00 17,3 14,9 5 3 ENE 1011,8 -
27.04.2018 02:00:00 17,6 15,0 8 4 W 1011,6 0,0
27.04.2018 01:00:00 18,3 13,9 5 3 SSW 1011,9 -
27.04.2018 00:00:00 19,3 14,5 8 4 WSW 1011,7 -
26.04.2018 23:00:00 19,4 15,8 11 6 WSW 1012,2 -
26.04.2018 22:00:00 18,8 16,0 9 5 W 1012,3 -
26.04.2018 21:00:00 19,6 16,6 9 5 W 1012,2 -
26.04.2018 20:00:00 20,4 18,6 8 4 SW 1010,9 0,0
26.04.2018 19:00:00 21,3 19,9 5 3 S 1011,2 -
26.04.2018 18:00:00 21,9 20,1 11 6 S 1011,3 -
26.04.2018 17:00:00 22,4 20,4 15 8 S 1011,4 -
26.04.2018 16:00:00 23,3 21,0 13 7 SSW 1011,5 -
26.04.2018 15:00:00 23,7 20,8 9 5 SSE 1011,9 -
26.04.2018 14:00:00 23,2 20,9 13 7 SSE 1012,6 0,0
26.04.2018 13:00:00 23,8 20,5 9 5 SSE 1013,0 -
26.04.2018 12:00:00 23,9 20,4 5 3 S 1013,3 -
26.04.2018 11:00:00 24,1 19,3 5 3 SE 1013,7 -
26.04.2018 10:00:00 23,7 18,5 8 4 S 1013,7 -
26.04.2018 09:00:00 22,3 18,6 4 2 S 1013,9 -
26.04.2018 08:00:00 19,8 18,4 4 2 S 1014,6 0,0
26.04.2018 07:00:00 17,9 17,8 4 2 S 1013,5 -
26.04.2018 06:00:00 16,3 15,1 4 2 SE 1013,3 -
26.04.2018 05:00:00 16,9 15,7 2 1 SE 1013,4 -
26.04.2018 04:00:00 16,8 15,9 4 2 SE 1013,4 -
26.04.2018 03:00:00 18,2 16,3 2 1 WSW 1013,8 -
26.04.2018 02:00:00 18,3 16,2 5 3 S 1014,2 0,0
26.04.2018 01:00:00 18,3 16,2 5 3 SW 1014,9 -
26.04.2018 00:00:00 18,8 15,4 5 3 WSW 1015,2 -
25.04.2018 23:00:00 19,9 15,7 8 4 W 1015,0 -
25.04.2018 22:00:00 19,4 15,6 9 5 WSW 1015,4 -
25.04.2018 21:00:00 20,2 17,0 8 4 WSW 1014,7 -
25.04.2018 20:00:00 20,4 17,0 9 5 S 1014,6 0,0
25.04.2018 19:00:00 21,3 17,2 9 5 S 1014,4 -
25.04.2018 18:00:00 22,7 16,4 9 5 S 1014,8 -
25.04.2018 17:00:00 23,2 17,1 9 5 S 1015,7 -
25.04.2018 16:00:00 24,1 16,0 9 5 S 1016,3 -
25.04.2018 15:00:00 24,1 16,5 8 4 SE 1016,9 -
25.04.2018 14:00:00 23,8 15,5 9 5 E 1017,3 0,0
25.04.2018 13:00:00 23,8 15,0 5 3 E 1017,8 -
25.04.2018 12:00:00 22,5 13,5 8 4 E 1018,3 -
25.04.2018 11:00:00 22,1 17,6 5 3 NE 1018,5 -
25.04.2018 10:00:00 21,4 19,5 5 3 E 1018,4 -
25.04.2018 09:00:00 20,5 18,4 5 3 NNE 1017,9 -
25.04.2018 08:00:00 18,8 17,6 4 2 N 1018,1 0,0
25.04.2018 07:00:00 17,6 16,4 5 3 ENE 1017,0 -
25.04.2018 06:00:00 16,5 15,3 4 2 NNW 1016,2 -
25.04.2018 05:00:00 17,0 15,8 5 3 N 1016,3 -
25.04.2018 04:00:00 16,5 15,6 4 2 N 1016,2 -
25.04.2018 03:00:00 16,3 15,6 4 2 NNW 1016,5 -
25.04.2018 02:00:00 15,8 14,4 5 3 W 1016,7 0,0
25.04.2018 01:00:00 16,3 14,8 5 3 W 1016,8 -
25.04.2018 00:00:00 16,7 14,6 5 3 W 1017,1 -
24.04.2018 23:00:00 17,8 15,2 0 0 N 1017,2 -
24.04.2018 22:00:00 18,5 15,7 0 0 N 1017,3 -
24.04.2018 21:00:00 18,5 14,9 2 1 S 1016,8 -
24.04.2018 20:00:00 18,7 15,9 5 3 SSW 1016,5 0,0
24.04.2018 19:00:00 20,4 16,6 4 2 S 1016,9 -
24.04.2018 18:00:00 22,2 15,5 0 0 N 1017,5 -
24.04.2018 17:00:00 22,3 15,6 2 1 ENE 1017,6 -
24.04.2018 16:00:00 21,8 15,6 4 2 ESE 1017,6 -
24.04.2018 15:00:00 21,8 17,7 8 4 ENE 1018,1 -
24.04.2018 14:00:00 21,2 17,3 13 7 NNE 1018,2 0,0
24.04.2018 13:00:00 20,6 17,5 13 7 NE 1018,5 -
24.04.2018 12:00:00 20,5 15,8 11 6 NE 1018,8 -
24.04.2018 11:00:00 21,0 16,1 9 5 N 1018,7 -
24.04.2018 10:00:00 20,5 16,5 11 6 NNE 1018,3 -
24.04.2018 09:00:00 18,4 16,7 9 5 N 1018,2 -
24.04.2018 08:00:00 16,3 16,2 11 6 NNW 1017,7 -
24.04.2018 07:00:00 14,3 13,3 8 4 NW 1016,7 -
24.04.2018 06:00:00 14,4 13,7 8 4 N 1015,8 -
24.04.2018 05:00:00 14,0 13,9 8 4 NW 1015,7 -
24.04.2018 04:00:00 13,9 13,8 8 4 NNW 1015,5 -
24.04.2018 03:00:00 13,9 13,8 9 5 NW 1015,7 -
24.04.2018 02:00:00 14,3 14,2 9 5 NW 1015,9 -
24.04.2018 01:00:00 14,9 14,8 9 5 NW 1016,2 -
24.04.2018 00:00:00 15,6 15,5 11 6 NW 1015,9 -
23.04.2018 23:00:00 15,5 15,4 9 5 NNW 1015,6 -
23.04.2018 22:00:00 16,0 15,9 9 5 NNW 1015,7 -
23.04.2018 21:00:00 16,6 15,4 11 6 NNW 1015,7 -
23.04.2018 20:00:00 16,8 15,9 9 5 N 1014,1 0,0
23.04.2018 19:00:00 18,4 17,2 11 6 N 1015,0 -
23.04.2018 18:00:00 19,5 18,1 15 8 NNE 1016,0 -
23.04.2018 17:00:00 20,6 18,7 15 8 N 1016,8 -
23.04.2018 16:00:00 20,3 19,4 15 8 NNE 1016,3 -
23.04.2018 15:00:00 20,2 18,8 16 9 N 1016,9 -
23.04.2018 14:00:00 20,0 18,6 21 11 N 1017,8 0,0
23.04.2018 13:00:00 19,7 19,3 18 10 N 1017,7 -
23.04.2018 12:00:00 19,2 18,0 15 8 N 1018,3 -
23.04.2018 11:00:00 19,7 18,0 15 8 N 1018,4 -
23.04.2018 10:00:00 20,6 19,7 9 5 N 1017,7 -
23.04.2018 09:00:00 18,3 18,2 8 4 NW 1017,9 -
23.04.2018 08:00:00 15,2 15,1 8 4 NW 1018,2 -
23.04.2018 07:00:00 12,2 12,2 8 4 WNW 1015,6 -
23.04.2018 06:00:00 11,6 11,6 8 4 WNW 1015,0 -
23.04.2018 05:00:00 11,6 11,6 8 4 WNW 1014,9 -
23.04.2018 04:00:00 12,1 12,1 9 5 NW 1014,7 -
23.04.2018 03:00:00 13,5 13,4 8 4 WNW 1015,7 -
23.04.2018 02:00:00 14,9 14,8 9 5 W 1016,8 0,0
23.04.2018 01:00:00 14,8 14,7 9 5 W 1017,8 -
23.04.2018 00:00:00 15,4 15,3 9 5 W 1017,9 -
22.04.2018 23:00:00 15,2 15,1 5 3 W 1018,1 -
22.04.2018 22:00:00 15,3 15,2 8 4 W 1018,2 -
22.04.2018 21:00:00 16,1 14,9 9 5 W 1017,8 -
22.04.2018 20:00:00 18,0 16,1 5 3 W 1017,3 0,0
22.04.2018 19:00:00 19,3 17,4 5 3 S 1016,8 -
22.04.2018 18:00:00 20,0 18,1 11 6 S 1017,0 -
22.04.2018 17:00:00 20,7 18,6 9 5 S 1017,4 -
22.04.2018 16:00:00 20,2 19,1 13 7 S 1017,7 -
22.04.2018 15:00:00 20,7 19,1 15 8 S 1018,2 -
22.04.2018 14:00:00 20,1 18,7 15 8 S 1018,7 0,0
22.04.2018 13:00:00 19,5 19,3 16 9 S 1019,0 -
22.04.2018 12:00:00 19,0 18,9 15 8 S 1019,5 -
22.04.2018 11:00:00 18,8 18,7 8 4 E 1019,7 -
22.04.2018 10:00:00 18,4 18,3 4 2 ESE 1019,7 -
22.04.2018 09:00:00 16,4 16,3 4 2 W 1021,5 -
22.04.2018 08:00:00 14,9 14,8 8 4 SW 1018,0 -
22.04.2018 07:00:00 14,3 14,2 5 3 SW 1017,3 -
22.04.2018 06:00:00 14,4 14,3 8 4 SSW 1017,2 -
22.04.2018 05:00:00 15,1 15,0 4 2 S 1017,7 -
22.04.2018 04:00:00 15,3 15,2 4 2 SSE 1017,4 -
22.04.2018 03:00:00 14,2 14,1 0 0 N 1016,2 -
22.04.2018 02:00:00 14,7 14,6 0 0 N 1017,0 0,0
22.04.2018 01:00:00 14,9 14,8 2 1 SE 1018,3 -
22.04.2018 00:00:00 15,4 15,3 0 0 N 1019,4 -
21.04.2018 23:00:00 15,6 15,5 8 4 SSW 1019,8 -
21.04.2018 22:00:00 15,5 15,4 9 5 SSW 1019,9 -
21.04.2018 21:00:00 15,8 15,7 9 5 SSW 1019,7 -
21.04.2018 20:00:00 16,5 16,4 9 5 S 1019,1 0,0
21.04.2018 19:00:00 18,2 18,1 11 6 S 1018,9 -
21.04.2018 18:00:00 19,1 19,0 16 9 S 1019,1 -
21.04.2018 17:00:00 19,9 18,5 16 9 S 1019,2 -
21.04.2018 16:00:00 20,1 19,7 18 10 SSW 1019,6 -
21.04.2018 15:00:00 20,2 19,8 22 12 S 1019,9 -
21.04.2018 14:00:00 20,0 18,6 21 11 S 1020,3 0,0
21.04.2018 13:00:00 20,0 18,6 18 10 S 1020,3 -
21.04.2018 12:00:00 19,7 18,8 22 12 S 1020,4 -
21.04.2018 11:00:00 19,4 18,2 22 12 SSE 1020,2 -
21.04.2018 10:00:00 19,1 17,9 24 13 S 1019,4 -
21.04.2018 09:00:00 18,5 18,4 22 12 S 1018,8 -
21.04.2018 08:00:00 17,9 17,8 21 11 S 1018,0 0,0

tt = Température de l'air
td = dewpoint
ff = Vitesse du vent
dd = Direction du vent
ppp = reduced air pressure
rr = Quantités de précipitations

stations d'obs. à proximité